createdAt,value
2023-02-13T00:02:40.121Z,99.76
2023-02-13T00:06:08.062Z,99.44
2023-02-13T00:09:35.376Z,99.45
2023-02-13T00:13:05.753Z,99.54
2023-02-13T00:16:33.276Z,99.45
2023-02-13T00:20:00.809Z,99.40
2023-02-13T00:23:28.941Z,99.35
2023-02-13T00:26:56.228Z,99.31
2023-02-13T00:30:24.071Z,98.98
2023-02-13T00:33:51.594Z,99.35
2023-02-13T00:37:18.996Z,99.43
2023-02-13T00:40:56.537Z,99.39
2023-02-13T00:44:24.170Z,99.59
2023-02-13T00:47:51.323Z,99.66
2023-02-13T00:51:20.927Z,99.79
2023-02-13T00:54:48.425Z,99.91
2023-02-13T00:58:16.011Z,100.00
2023-02-13T01:01:45.221Z,99.83
2023-02-13T01:05:13.110Z,99.83
2023-02-13T01:08:43.346Z,99.90
2023-02-13T01:12:11.231Z,99.74
2023-02-13T01:15:38.900Z,99.87
2023-02-13T01:19:07.393Z,99.98
2023-02-13T01:22:34.825Z,99.99
2023-02-13T01:26:02.235Z,100.00
2023-02-13T01:29:29.423Z,99.97
2023-02-13T01:32:56.634Z,100.00
2023-02-13T01:36:24.060Z,99.99
2023-02-13T01:39:56.461Z,100.00
2023-02-13T01:43:26.162Z,100.00
2023-02-13T01:46:54.078Z,100.00
2023-02-13T01:50:46.108Z,100.00
2023-02-13T01:54:18.467Z,100.00
2023-02-13T01:57:50.687Z,100.00
2023-02-13T02:01:18.433Z,100.00
2023-02-13T02:04:47.964Z,100.00
2023-02-13T02:08:18.549Z,100.00
2023-02-13T02:12:02.499Z,100.00
2023-02-13T02:15:30.503Z,100.00
2023-02-13T02:18:58.347Z,100.00
2023-02-13T02:22:58.291Z,100.00
2023-02-13T02:26:59.692Z,100.00
2023-02-13T02:31:17.470Z,100.00
2023-02-13T02:34:57.679Z,100.00
2023-02-13T02:38:40.570Z,100.00
2023-02-13T02:42:19.561Z,100.00
2023-02-13T02:45:54.337Z,100.00
2023-02-13T02:49:54.334Z,100.00
2023-02-13T02:53:49.411Z,100.00
2023-02-13T02:57:23.092Z,100.00
2023-02-13T03:01:16.882Z,100.00
2023-02-13T03:05:08.149Z,100.00
2023-02-13T03:08:52.872Z,100.00
2023-02-13T03:12:41.943Z,100.00
2023-02-13T03:16:30.939Z,100.00
2023-02-13T03:20:25.222Z,100.00
2023-02-13T03:24:02.356Z,100.00
2023-02-13T03:27:58.532Z,100.00
2023-02-13T03:31:33.377Z,100.00
2023-02-13T03:35:39.070Z,100.00
2023-02-13T03:39:13.892Z,100.00
2023-02-13T03:42:47.106Z,100.00
2023-02-13T03:46:15.676Z,100.00
2023-02-13T03:50:08.086Z,100.00
2023-02-13T03:53:39.494Z,100.00
2023-02-13T03:57:24.295Z,100.00
2023-02-13T04:00:55.350Z,100.00
2023-02-13T04:04:28.996Z,100.00
2023-02-13T04:07:56.420Z,100.00
2023-02-13T04:11:32.150Z,100.00
2023-02-13T04:15:05.559Z,100.00
2023-02-13T04:18:34.228Z,100.00
2023-02-13T04:22:03.263Z,100.00
2023-02-13T04:25:30.540Z,100.00
2023-02-13T04:28:57.727Z,100.00
2023-02-13T04:32:24.987Z,100.00
2023-02-13T04:35:52.715Z,100.00
2023-02-13T04:39:20.736Z,100.00
2023-02-13T04:42:50.416Z,100.00
2023-02-13T04:46:16.058Z,100.00
2023-02-13T04:49:43.395Z,100.00
2023-02-13T04:53:10.748Z,100.00
2023-02-13T04:56:37.825Z,100.00
2023-02-13T05:00:05.664Z,100.00
2023-02-13T05:03:32.847Z,100.00
2023-02-13T05:07:00.143Z,100.00
2023-02-13T05:10:27.561Z,100.00
2023-02-13T05:13:55.103Z,100.00
2023-02-13T05:17:22.418Z,100.00
2023-02-13T05:21:09.856Z,100.00
2023-02-13T05:24:36.951Z,100.00
2023-02-13T05:28:04.731Z,100.00
2023-02-13T05:31:32.013Z,100.00
2023-02-13T05:34:59.405Z,100.00
2023-02-13T05:38:26.556Z,100.00
2023-02-13T05:41:53.849Z,100.00
2023-02-13T05:45:21.418Z,100.00
2023-02-13T05:48:48.450Z,100.00
2023-02-13T05:52:15.740Z,100.00
2023-02-13T05:55:43.240Z,100.00
2023-02-13T05:59:10.776Z,100.00
2023-02-13T06:02:38.039Z,100.00
2023-02-13T06:06:05.852Z,100.00
2023-02-13T06:09:33.170Z,100.00
2023-02-13T06:13:00.453Z,100.00
2023-02-13T06:16:28.141Z,100.00
2023-02-13T06:19:55.566Z,100.00
2023-02-13T06:23:22.651Z,100.00
2023-02-13T06:26:49.902Z,100.00
2023-02-13T06:30:19.050Z,100.00
2023-02-13T06:33:49.134Z,100.00
2023-02-13T06:37:27.393Z,100.00
2023-02-13T06:40:54.516Z,100.00
2023-02-13T06:44:21.988Z,100.00
2023-02-13T06:47:50.380Z,100.00
2023-02-13T06:51:17.820Z,100.00
2023-02-13T06:54:48.053Z,100.00
2023-02-13T06:58:15.527Z,100.00
2023-02-13T07:01:42.908Z,100.00
2023-02-13T07:05:11.642Z,100.00
2023-02-13T07:08:38.764Z,100.00
2023-02-13T07:12:08.397Z,100.00
2023-02-13T07:15:34.070Z,100.00
2023-02-13T07:19:01.373Z,100.00
2023-02-13T07:22:28.787Z,100.00
2023-02-13T07:25:56.154Z,100.00
2023-02-13T07:29:23.387Z,100.00
2023-02-13T07:32:53.287Z,100.00
2023-02-13T07:36:20.566Z,100.00
2023-02-13T07:39:47.782Z,100.00
2023-02-13T07:43:17.592Z,100.00
2023-02-13T07:46:44.925Z,99.97
2023-02-13T07:50:13.800Z,100.00
2023-02-13T07:53:41.015Z,99.96
2023-02-13T07:57:08.477Z,99.94
2023-02-13T08:00:35.686Z,99.71
2023-02-13T08:04:02.878Z,99.84
2023-02-13T08:07:30.213Z,99.59
2023-02-13T08:11:16.184Z,99.23
2023-02-13T08:14:43.651Z,99.34
2023-02-13T08:18:11.048Z,99.38
2023-02-13T08:21:38.351Z,98.93
2023-02-13T08:25:06.047Z,98.68
2023-02-13T08:28:33.321Z,98.48
2023-02-13T08:32:00.697Z,97.92
2023-02-13T08:35:29.847Z,98.07
2023-02-13T08:38:57.082Z,97.78
2023-02-13T08:42:24.267Z,97.70
2023-02-13T08:45:51.470Z,97.61
2023-02-13T08:49:19.045Z,97.36
2023-02-13T08:52:46.370Z,97.25
2023-02-13T08:56:13.593Z,97.49
2023-02-13T08:59:40.743Z,97.28
2023-02-13T09:03:10.095Z,97.13
2023-02-13T09:06:37.988Z,97.00
2023-02-13T09:10:05.538Z,96.96
2023-02-13T09:13:34.564Z,96.83
2023-02-13T09:17:01.636Z,96.78
2023-02-13T09:20:29.006Z,96.79
2023-02-13T09:23:56.364Z,96.59
2023-02-13T09:27:23.409Z,96.40
2023-02-13T09:30:50.919Z,96.14
2023-02-13T09:34:18.353Z,96.39
2023-02-13T09:37:45.920Z,96.29
2023-02-13T09:41:17.419Z,96.38
2023-02-13T09:44:46.295Z,96.25
2023-02-13T09:48:20.541Z,96.29
2023-02-13T09:51:49.830Z,95.96
2023-02-13T09:55:22.974Z,96.08
2023-02-13T09:58:58.701Z,95.83
2023-02-13T10:02:42.558Z,95.38
2023-02-13T10:06:16.195Z,95.50
2023-02-13T10:09:54.225Z,95.20
2023-02-13T10:13:34.004Z,95.23
2023-02-13T10:17:05.474Z,94.74
2023-02-13T10:20:37.140Z,94.78
2023-02-13T10:24:08.730Z,94.46
2023-02-13T10:27:41.448Z,94.12
2023-02-13T10:31:12.358Z,93.34
2023-02-13T10:34:44.966Z,93.71
2023-02-13T10:38:20.450Z,93.34
2023-02-13T10:41:57.812Z,92.69
2023-02-13T10:45:47.416Z,92.83
2023-02-13T10:49:38.093Z,92.41
2023-02-13T10:53:18.102Z,92.26
2023-02-13T10:56:52.959Z,91.69
2023-02-13T11:00:27.312Z,91.91
2023-02-13T11:04:07.572Z,91.48
2023-02-13T11:07:37.106Z,91.64
2023-02-13T11:11:05.969Z,91.76
2023-02-13T11:14:33.806Z,91.82
2023-02-13T11:18:13.436Z,92.08
2023-02-13T11:21:41.133Z,91.80
2023-02-13T11:25:20.064Z,91.70
2023-02-13T11:28:55.564Z,91.68
2023-02-13T11:32:25.235Z,91.81
2023-02-13T11:36:05.022Z,91.41
2023-02-13T11:39:30.579Z,91.49
2023-02-13T11:42:57.789Z,91.55
2023-02-13T11:46:27.004Z,91.02
2023-02-13T11:49:54.328Z,90.73
2023-02-13T11:53:25.585Z,90.75
2023-02-13T11:57:04.696Z,90.39
2023-02-13T12:00:40.051Z,90.18
2023-02-13T12:04:16.208Z,90.03
2023-02-13T12:07:44.561Z,89.58
2023-02-13T12:11:23.385Z,89.48
2023-02-13T12:14:51.799Z,89.37
2023-02-13T12:18:28.097Z,89.40
2023-02-13T12:22:15.077Z,89.49
2023-02-13T12:25:55.273Z,89.19
2023-02-13T12:29:39.071Z,89.26
2023-02-13T12:33:18.971Z,89.19
2023-02-13T12:36:48.213Z,88.99
2023-02-13T12:40:44.367Z,88.97
2023-02-13T12:44:42.820Z,88.94
2023-02-13T12:48:29.580Z,88.83
2023-02-13T12:52:15.147Z,88.95
2023-02-13T12:56:03.066Z,89.05
2023-02-13T12:59:43.260Z,88.84
2023-02-13T13:03:41.303Z,89.00
2023-02-13T13:07:30.240Z,89.30
2023-02-13T13:11:13.975Z,88.80
2023-02-13T13:14:46.470Z,88.91
2023-02-13T13:18:29.767Z,88.86
2023-02-13T13:22:01.714Z,88.60
2023-02-13T13:25:49.736Z,88.56
2023-02-13T13:29:22.025Z,88.31
2023-02-13T13:32:53.251Z,88.38
2023-02-13T13:36:36.830Z,88.04
2023-02-13T13:40:17.976Z,88.01
2023-02-13T13:43:58.770Z,88.08
2023-02-13T13:47:41.892Z,88.05
2023-02-13T13:51:20.149Z,87.38
2023-02-13T13:55:00.690Z,87.73
2023-02-13T13:58:36.754Z,87.25
2023-02-13T14:02:41.586Z,87.46
2023-02-13T14:06:11.716Z,87.45
2023-02-13T14:09:43.986Z,86.92
2023-02-13T14:13:11.603Z,86.94
2023-02-13T14:17:01.939Z,86.83
2023-02-13T14:20:38.919Z,86.88
2023-02-13T14:24:36.078Z,86.40
2023-02-13T14:28:05.741Z,86.57
2023-02-13T14:31:35.842Z,85.57
2023-02-13T14:35:07.488Z,85.85
2023-02-13T14:38:35.680Z,85.93
2023-02-13T14:42:04.536Z,86.09
2023-02-13T14:45:35.240Z,85.78
2023-02-13T14:49:08.232Z,85.66
2023-02-13T14:52:43.062Z,86.01
2023-02-13T14:56:14.563Z,85.73
2023-02-13T14:59:47.847Z,85.50
2023-02-13T15:03:25.939Z,85.28
2023-02-13T15:06:55.489Z,85.94
2023-02-13T15:10:37.484Z,85.83
2023-02-13T15:14:23.238Z,85.75
2023-02-13T15:17:50.747Z,85.64
2023-02-13T15:21:22.315Z,86.05
2023-02-13T15:24:51.753Z,85.81
2023-02-13T15:28:23.082Z,85.96
2023-02-13T15:31:52.825Z,86.17
2023-02-13T15:35:28.101Z,86.34
2023-02-13T15:39:09.530Z,85.71
2023-02-13T15:42:39.035Z,85.90
2023-02-13T15:46:19.019Z,85.46
2023-02-13T15:49:50.406Z,85.50
2023-02-13T15:53:19.913Z,85.22
2023-02-13T15:56:49.786Z,84.77
2023-02-13T16:00:25.630Z,84.85
2023-02-13T16:04:00.041Z,84.47
2023-02-13T16:07:27.215Z,84.42
2023-02-13T16:11:25.122Z,84.60
2023-02-13T16:14:56.397Z,84.59
2023-02-13T16:18:23.820Z,84.61
2023-02-13T16:21:52.968Z,84.67
2023-02-13T16:25:26.155Z,84.72
2023-02-13T16:28:55.229Z,84.60
2023-02-13T16:32:29.422Z,84.84
2023-02-13T16:35:58.079Z,84.48
2023-02-13T16:39:45.677Z,84.91
2023-02-13T16:43:51.742Z,84.86
2023-02-13T16:47:25.325Z,85.23
2023-02-13T16:50:59.532Z,85.16
2023-02-13T16:54:34.680Z,85.51
2023-02-13T16:58:07.300Z,84.95
2023-02-13T17:01:38.347Z,84.79
2023-02-13T17:05:25.062Z,84.92
2023-02-13T17:08:53.869Z,85.10
2023-02-13T17:12:21.897Z,84.92
2023-02-13T17:15:50.465Z,84.75
2023-02-13T17:19:17.811Z,84.79
2023-02-13T17:22:47.277Z,84.90
2023-02-13T17:26:16.929Z,85.09
2023-02-13T17:29:44.224Z,84.85
2023-02-13T17:33:16.524Z,84.86
2023-02-13T17:36:43.631Z,84.37
2023-02-13T17:40:16.619Z,84.68
2023-02-13T17:43:43.900Z,84.94
2023-02-13T17:47:11.372Z,84.81
2023-02-13T17:50:39.875Z,84.95
2023-02-13T17:54:07.579Z,84.70
2023-02-13T17:57:37.957Z,85.03
2023-02-13T18:01:06.017Z,84.53
2023-02-13T18:04:42.710Z,84.49
2023-02-13T18:08:13.217Z,84.43
2023-02-13T18:11:40.525Z,84.25
2023-02-13T18:15:09.326Z,84.34
2023-02-13T18:18:36.643Z,84.38
2023-02-13T18:22:04.050Z,84.44
2023-02-13T18:25:31.419Z,84.36
2023-02-13T18:28:58.784Z,84.41
2023-02-13T18:32:26.361Z,84.43
2023-02-13T18:35:59.111Z,84.62
2023-02-13T18:39:26.401Z,84.20
2023-02-13T18:42:53.468Z,84.32
2023-02-13T18:46:20.831Z,84.21
2023-02-13T18:49:48.204Z,84.58
2023-02-13T18:53:15.660Z,84.18
2023-02-13T18:56:43.128Z,84.61
2023-02-13T19:00:17.326Z,84.69
2023-02-13T19:03:44.610Z,84.74
2023-02-13T19:07:11.953Z,84.65
2023-02-13T19:10:39.066Z,84.54
2023-02-13T19:14:07.370Z,84.65
2023-02-13T19:17:39.193Z,84.80
2023-02-13T19:21:07.865Z,85.05
2023-02-13T19:24:35.528Z,85.02
2023-02-13T19:28:02.746Z,84.56
2023-02-13T19:31:32.377Z,84.59
2023-02-13T19:34:59.762Z,84.81
2023-02-13T19:38:26.945Z,84.71
2023-02-13T19:41:54.297Z,84.76
2023-02-13T19:45:21.986Z,84.79
2023-02-13T19:48:49.646Z,84.92
2023-02-13T19:52:17.140Z,84.94
2023-02-13T19:55:44.556Z,84.76
2023-02-13T19:59:13.629Z,84.74
2023-02-13T20:02:41.591Z,84.96
2023-02-13T20:06:14.119Z,85.08
2023-02-13T20:09:42.094Z,85.21
2023-02-13T20:13:09.261Z,84.64
2023-02-13T20:16:37.106Z,84.55
2023-02-13T20:20:05.293Z,84.77
2023-02-13T20:23:32.658Z,84.78
2023-02-13T20:26:59.931Z,84.87
2023-02-13T20:30:27.692Z,85.12
2023-02-13T20:33:59.471Z,85.07
2023-02-13T20:37:26.762Z,85.10
2023-02-13T20:40:57.829Z,85.05
2023-02-13T20:44:29.732Z,85.07
2023-02-13T20:47:56.994Z,85.16
2023-02-13T20:51:24.294Z,85.47
2023-02-13T20:54:51.501Z,85.34
2023-02-13T20:58:19.358Z,85.14
2023-02-13T21:01:50.075Z,85.51
2023-02-13T21:05:18.214Z,85.29
2023-02-13T21:08:46.566Z,85.44
2023-02-13T21:12:14.514Z,85.90
2023-02-13T21:15:41.985Z,85.71
2023-02-13T21:19:13.017Z,85.90
2023-02-13T21:22:40.441Z,86.06
2023-02-13T21:26:13.409Z,85.73
2023-02-13T21:29:41.256Z,86.20
2023-02-13T21:33:08.374Z,86.17
2023-02-13T21:36:37.311Z,86.28
2023-02-13T21:40:08.524Z,86.44
2023-02-13T21:43:37.975Z,86.92
2023-02-13T21:47:11.289Z,86.81
2023-02-13T21:50:48.419Z,86.97
2023-02-13T21:54:16.340Z,87.12
2023-02-13T21:57:44.115Z,86.97
2023-02-13T22:01:25.460Z,87.32
2023-02-13T22:04:53.805Z,87.37
2023-02-13T22:08:21.017Z,87.20
2023-02-13T22:11:50.442Z,87.39
2023-02-13T22:15:19.239Z,87.60
2023-02-13T22:18:49.105Z,87.32
2023-02-13T22:22:16.387Z,87.40
2023-02-13T22:25:48.056Z,87.58
2023-02-13T22:29:17.921Z,87.37
2023-02-13T22:32:47.751Z,87.44
2023-02-13T22:36:16.828Z,87.41
2023-02-13T22:39:44.074Z,87.34
2023-02-13T22:43:13.632Z,87.33
2023-02-13T22:46:40.912Z,87.43
2023-02-13T22:50:10.325Z,87.40
2023-02-13T22:53:38.554Z,87.36
2023-02-13T22:57:06.200Z,87.20
2023-02-13T23:00:33.474Z,87.71
2023-02-13T23:04:00.911Z,87.43
2023-02-13T23:07:28.224Z,87.31
2023-02-13T23:11:13.127Z,87.74
2023-02-13T23:14:40.327Z,87.51
2023-02-13T23:18:13.914Z,87.46
2023-02-13T23:21:41.088Z,87.79
2023-02-13T23:25:09.051Z,87.86
2023-02-13T23:28:43.785Z,87.96
2023-02-13T23:32:11.178Z,87.97
2023-02-13T23:35:38.427Z,87.90
2023-02-13T23:39:05.696Z,87.90
2023-02-13T23:42:32.881Z,87.92
2023-02-13T23:46:00.166Z,88.01
2023-02-13T23:49:27.435Z,88.15
2023-02-13T23:52:54.770Z,87.87
2023-02-13T23:56:22.067Z,88.26
2023-02-13T23:59:49.482Z,88.07
